createdAt,value
2023-05-20T00:00:06.695Z,16.30
2023-05-20T00:03:32.910Z,16.30
2023-05-20T00:06:56.977Z,16.30
2023-05-20T00:10:21.595Z,16.30
2023-05-20T00:13:45.384Z,16.30
2023-05-20T00:17:09.577Z,16.30
2023-05-20T00:20:35.446Z,16.30
2023-05-20T00:23:59.852Z,16.30
2023-05-20T00:27:24.192Z,16.30
2023-05-20T00:30:47.753Z,16.30
2023-05-20T00:34:11.539Z,16.30
2023-05-20T00:37:36.535Z,16.30
2023-05-20T00:41:00.421Z,16.30
2023-05-20T00:44:26.661Z,16.30
2023-05-20T00:47:50.551Z,16.40
2023-05-20T00:51:15.627Z,16.40
2023-05-20T00:54:41.699Z,16.50
2023-05-20T00:58:05.739Z,16.40
2023-05-20T01:01:30.049Z,16.40
2023-05-20T01:04:56.570Z,16.40
2023-05-20T01:08:20.306Z,16.50
2023-05-20T01:11:53.884Z,16.50
2023-05-20T01:15:19.347Z,16.50
2023-05-20T01:18:44.679Z,16.50
2023-05-20T01:22:12.555Z,16.50
2023-05-20T01:25:37.518Z,16.50
2023-05-20T01:29:04.330Z,16.50
2023-05-20T01:32:35.973Z,16.50
2023-05-20T01:36:00.937Z,16.50
2023-05-20T01:39:26.521Z,16.50
2023-05-20T01:42:53.494Z,16.50
2023-05-20T01:46:17.511Z,16.50
2023-05-20T01:49:41.492Z,16.50
2023-05-20T01:53:05.899Z,16.50
2023-05-20T01:56:29.398Z,16.50
2023-05-20T01:59:54.466Z,16.50
2023-05-20T02:03:18.990Z,16.50
2023-05-20T02:06:42.613Z,16.60
2023-05-20T02:10:07.892Z,16.40
2023-05-20T02:13:31.531Z,16.40
2023-05-20T02:16:56.585Z,16.40
2023-05-20T02:20:20.228Z,16.30
2023-05-20T02:23:43.778Z,16.20
2023-05-20T02:27:07.605Z,16.20
2023-05-20T02:30:31.278Z,16.10
2023-05-20T02:33:56.201Z,16.10
2023-05-20T02:37:20.189Z,16.00
2023-05-20T02:40:45.813Z,16.00
2023-05-20T02:44:09.460Z,15.90
2023-05-20T02:47:33.066Z,15.90
2023-05-20T02:50:58.064Z,15.80
2023-05-20T02:54:21.669Z,15.80
2023-05-20T02:57:45.309Z,15.70
2023-05-20T03:01:08.912Z,15.70
2023-05-20T03:04:33.763Z,15.70
2023-05-20T03:07:58.755Z,15.70
2023-05-20T03:11:24.362Z,15.70
2023-05-20T03:14:47.977Z,15.60
2023-05-20T03:18:12.498Z,15.60
2023-05-20T03:21:36.135Z,15.60
2023-05-20T03:25:02.390Z,15.60
2023-05-20T03:28:26.616Z,15.60
2023-05-20T03:31:50.627Z,15.50
2023-05-20T03:35:14.492Z,15.50
2023-05-20T03:38:38.223Z,15.50
2023-05-20T03:42:03.261Z,15.40
2023-05-20T03:45:27.281Z,15.40
2023-05-20T03:49:02.632Z,15.30
2023-05-20T03:52:27.425Z,15.30
2023-05-20T03:55:51.046Z,15.30
2023-05-20T03:59:16.346Z,15.30
2023-05-20T04:02:40.051Z,15.30
2023-05-20T04:06:03.829Z,15.40
2023-05-20T04:09:28.699Z,15.40
2023-05-20T04:12:52.436Z,15.50
2023-05-20T04:16:18.492Z,15.50
2023-05-20T04:19:42.691Z,15.50
2023-05-20T04:23:06.461Z,15.60
2023-05-20T04:26:30.410Z,15.70
2023-05-20T04:29:55.035Z,15.70
2023-05-20T04:33:20.195Z,15.80
2023-05-20T04:36:45.686Z,15.80
2023-05-20T04:40:12.512Z,15.90
2023-05-20T04:43:38.926Z,16.00
2023-05-20T04:47:02.746Z,16.00
2023-05-20T04:50:28.507Z,16.10
2023-05-20T04:53:52.128Z,16.20
2023-05-20T04:57:15.674Z,16.50
2023-05-20T05:00:39.349Z,16.90
2023-05-20T05:04:03.680Z,17.30
2023-05-20T05:07:28.790Z,17.30
2023-05-20T05:10:52.368Z,17.50
2023-05-20T05:14:17.824Z,17.50
2023-05-20T05:17:42.133Z,17.60
2023-05-20T05:21:07.690Z,17.60
2023-05-20T05:24:33.983Z,17.60
2023-05-20T05:27:57.761Z,17.70
2023-05-20T05:31:21.533Z,17.70
2023-05-20T05:34:45.256Z,17.70
2023-05-20T05:38:08.842Z,17.80
2023-05-20T05:41:35.580Z,17.90
2023-05-20T05:44:59.230Z,18.00
2023-05-20T05:48:23.051Z,18.10
2023-05-20T05:51:46.820Z,18.40
2023-05-20T05:55:13.063Z,18.50
2023-05-20T05:58:38.022Z,18.60
2023-05-20T06:02:03.302Z,18.80
2023-05-20T06:05:29.268Z,19.00
2023-05-20T06:08:53.759Z,19.20
2023-05-20T06:12:17.772Z,19.30
2023-05-20T06:15:42.971Z,19.40
2023-05-20T06:19:09.173Z,19.50
2023-05-20T06:22:33.052Z,19.60
2023-05-20T06:26:00.166Z,19.80
2023-05-20T06:29:24.901Z,20.00
2023-05-20T06:32:50.129Z,20.20
2023-05-20T06:36:15.074Z,20.40
2023-05-20T06:39:38.779Z,20.60
2023-05-20T06:43:02.365Z,21.00
2023-05-20T06:46:44.873Z,21.10
2023-05-20T06:50:14.698Z,21.30
2023-05-20T06:53:38.457Z,21.50
2023-05-20T06:57:02.247Z,21.80
2023-05-20T07:00:26.056Z,22.30
2023-05-20T07:03:50.753Z,22.60
2023-05-20T07:07:17.483Z,22.80
2023-05-20T07:10:42.280Z,22.70
2023-05-20T07:14:06.300Z,22.60
2023-05-20T07:17:30.285Z,22.60
2023-05-20T07:20:53.983Z,22.60
2023-05-20T07:24:45.522Z,22.60
2023-05-20T07:28:09.112Z,22.50
2023-05-20T07:31:33.077Z,22.40
2023-05-20T07:34:56.892Z,22.40
2023-05-20T07:38:20.503Z,22.50
2023-05-20T07:41:49.872Z,22.60
2023-05-20T07:45:13.853Z,22.70
2023-05-20T07:48:37.593Z,22.70
2023-05-20T07:52:03.008Z,22.70
2023-05-20T07:55:27.462Z,22.70
2023-05-20T07:58:58.254Z,22.70
2023-05-20T08:02:24.365Z,22.70
2023-05-20T08:05:48.883Z,22.60
2023-05-20T08:09:12.707Z,22.60
2023-05-20T08:12:42.132Z,22.70
2023-05-20T08:16:07.978Z,22.80
2023-05-20T08:19:31.989Z,22.90
2023-05-20T08:22:56.173Z,22.90
2023-05-20T08:26:21.947Z,22.80
2023-05-20T08:29:47.269Z,22.70
2023-05-20T08:33:13.574Z,22.50
2023-05-20T08:36:37.296Z,22.30
2023-05-20T08:40:01.502Z,22.20
2023-05-20T08:43:26.108Z,22.30
2023-05-20T08:46:51.746Z,22.10
2023-05-20T08:50:18.402Z,22.20
2023-05-20T08:53:42.043Z,22.30
2023-05-20T08:57:06.703Z,22.50
2023-05-20T09:00:30.678Z,22.70
2023-05-20T09:03:54.392Z,23.00
2023-05-20T09:07:29.456Z,23.50
2023-05-20T09:10:54.373Z,24.00
2023-05-20T09:14:17.983Z,24.50
2023-05-20T09:17:41.749Z,25.00
2023-05-20T09:21:07.882Z,25.30
2023-05-20T09:24:33.031Z,25.70
2023-05-20T09:27:57.526Z,26.10
2023-05-20T09:31:22.366Z,26.40
2023-05-20T09:34:48.685Z,26.60
2023-05-20T09:38:14.823Z,26.70
2023-05-20T09:41:57.283Z,26.70
2023-05-20T09:45:22.101Z,26.70
2023-05-20T09:48:46.526Z,26.60
2023-05-20T14:24:12.457Z,25.70
2023-05-20T14:27:36.202Z,25.60
2023-05-20T14:30:59.837Z,25.80
2023-05-20T14:34:23.615Z,26.00
2023-05-20T14:37:47.384Z,26.20
2023-05-20T14:41:12.396Z,26.30
2023-05-20T14:44:35.948Z,26.40
2023-05-20T14:47:59.586Z,26.40
2023-05-20T14:51:23.206Z,26.40
2023-05-20T14:54:46.828Z,26.50
2023-05-20T14:58:11.755Z,26.50
2023-05-20T15:01:35.673Z,26.50
2023-05-20T15:04:59.216Z,26.50
2023-05-20T15:08:23.229Z,26.50
2023-05-20T15:11:48.267Z,26.50
2023-05-20T15:15:13.424Z,26.40
2023-05-20T15:18:37.136Z,26.40
2023-05-20T15:22:00.745Z,26.40
2023-05-20T15:25:25.430Z,26.40
2023-05-20T15:28:49.057Z,26.40
2023-05-20T15:32:13.939Z,26.30
2023-05-20T15:35:37.618Z,26.30
2023-05-20T15:39:01.291Z,26.20
2023-05-20T15:42:25.544Z,26.20
2023-05-20T15:45:49.190Z,26.10
2023-05-20T15:49:14.293Z,26.10
2023-05-20T15:52:38.690Z,26.10
2023-05-20T15:56:02.445Z,26.10
2023-05-20T15:59:26.772Z,26.10
2023-05-20T16:02:50.843Z,26.10
2023-05-20T16:06:16.445Z,26.10
2023-05-20T16:09:40.028Z,26.20
2023-05-20T16:13:03.697Z,26.30
2023-05-20T16:16:27.576Z,26.30
2023-05-20T16:19:51.376Z,26.40
2023-05-20T16:23:16.792Z,26.40
2023-05-20T16:26:40.880Z,26.40
2023-05-20T16:30:07.961Z,26.50
2023-05-20T16:33:31.544Z,26.40
2023-05-20T16:36:55.145Z,26.50
2023-05-20T16:40:20.136Z,26.50
2023-05-20T16:43:43.662Z,26.60
2023-05-20T16:47:08.807Z,26.60
2023-05-20T16:50:32.775Z,26.60
2023-05-20T16:53:56.584Z,26.60
2023-05-20T16:57:21.918Z,26.60
2023-05-20T17:00:45.412Z,26.60
2023-05-20T17:04:09.169Z,26.60
2023-05-20T17:07:33.522Z,26.60
2023-05-20T17:10:57.382Z,26.60
2023-05-20T17:14:22.344Z,26.60
2023-05-20T17:17:45.987Z,26.50
2023-05-20T17:21:09.537Z,26.50
2023-05-20T17:24:34.076Z,26.40
2023-05-20T17:27:57.791Z,26.40
2023-05-20T17:31:22.716Z,26.60
2023-05-20T17:34:46.305Z,26.40
2023-05-20T17:38:09.762Z,26.20
2023-05-20T17:41:33.244Z,26.10
2023-05-20T17:44:56.767Z,26.10
2023-05-20T17:48:21.603Z,26.00
2023-05-20T17:51:46.128Z,25.90
2023-05-20T17:55:10.338Z,26.00
2023-05-20T17:58:33.880Z,25.70
2023-05-20T18:01:57.639Z,25.70
2023-05-20T18:05:22.550Z,25.60
2023-05-20T18:08:46.075Z,25.60
2023-05-20T18:12:09.986Z,25.60
2023-05-20T18:15:33.471Z,25.50
2023-05-20T18:18:58.306Z,25.50
2023-05-20T18:22:23.294Z,25.40
2023-05-20T18:25:46.777Z,25.30
2023-05-20T18:29:12.255Z,25.20
2023-05-20T18:32:36.517Z,25.30
2023-05-20T18:36:00.229Z,25.00
2023-05-20T18:39:25.060Z,25.00
2023-05-20T18:42:48.619Z,25.00
2023-05-20T18:46:12.169Z,25.00
2023-05-20T18:49:35.648Z,24.80
2023-05-20T18:52:59.427Z,24.80
2023-05-20T18:56:25.073Z,24.70
2023-05-20T18:59:48.748Z,24.70
2023-05-20T19:03:12.393Z,24.50
2023-05-20T19:06:37.538Z,24.50
2023-05-20T19:10:01.987Z,24.40
2023-05-20T19:13:27.194Z,24.30
2023-05-20T19:16:50.873Z,24.20
2023-05-20T19:20:14.672Z,24.10
2023-05-20T19:23:38.266Z,24.10
2023-05-20T19:27:02.666Z,24.00
2023-05-20T19:30:27.610Z,23.90
2023-05-20T19:33:51.244Z,23.90
2023-05-20T19:37:15.025Z,23.80
2023-05-20T19:40:38.571Z,23.80
2023-05-20T19:44:03.193Z,23.80
2023-05-20T19:47:28.241Z,23.60
2023-05-20T19:50:51.888Z,23.50
2023-05-20T19:54:15.782Z,23.50
2023-05-20T19:57:39.270Z,23.40
2023-05-20T20:01:04.424Z,23.30
2023-05-20T20:04:29.454Z,23.20
2023-05-20T20:07:53.215Z,23.10
2023-05-20T20:11:16.817Z,23.10
2023-05-20T20:14:40.431Z,23.00
2023-05-20T20:18:04.933Z,22.90
2023-05-20T20:21:29.861Z,22.90
2023-05-20T20:24:53.760Z,22.80
2023-05-20T20:28:17.551Z,22.70
2023-05-20T20:31:41.261Z,22.70
2023-05-20T20:35:06.108Z,22.60
2023-05-20T20:38:31.383Z,22.50
2023-05-20T20:41:54.969Z,22.40
2023-05-20T20:45:22.662Z,22.40
2023-05-20T20:48:46.878Z,22.30
2023-05-20T20:52:10.827Z,22.20
2023-05-20T20:55:35.947Z,22.20
2023-05-20T20:59:00.402Z,22.20
2023-05-20T21:02:23.903Z,22.10
2023-05-20T21:05:48.542Z,22.10
2023-05-20T21:09:11.984Z,21.90
2023-05-20T21:12:36.946Z,21.90
2023-05-20T21:16:00.569Z,21.80
2023-05-20T21:19:24.243Z,21.80
2023-05-20T21:22:48.169Z,21.70
2023-05-20T21:26:11.664Z,21.70
2023-05-20T21:29:38.428Z,21.60
2023-05-20T21:33:03.602Z,21.70
2023-05-20T21:36:27.298Z,21.60
2023-05-20T21:39:50.945Z,21.60
2023-05-20T21:43:14.787Z,21.60
2023-05-20T21:46:40.100Z,21.50
2023-05-20T21:50:04.081Z,21.70
2023-05-20T21:53:27.814Z,21.50
2023-05-20T21:56:51.588Z,21.40
2023-05-20T22:00:18.510Z,21.60
2023-05-20T22:03:48.779Z,21.40
2023-05-20T22:07:14.054Z,21.30
2023-05-20T22:10:37.632Z,21.30
2023-05-20T22:14:01.231Z,21.20
2023-05-20T22:17:25.050Z,21.20
2023-05-20T22:20:50.358Z,18.70
2023-05-20T22:24:14.259Z,21.20
2023-05-20T22:27:38.677Z,21.10
2023-05-20T22:31:02.441Z,21.10
2023-05-20T22:34:26.036Z,21.10
2023-05-20T22:37:50.998Z,21.10
2023-05-20T22:41:14.551Z,21.10
2023-05-20T22:44:38.144Z,21.00
2023-05-20T22:48:01.799Z,21.00
2023-05-20T22:51:26.001Z,21.00
2023-05-20T22:54:51.038Z,21.00
2023-05-20T22:58:14.571Z,21.10
2023-05-20T23:01:38.230Z,20.90
2023-05-20T23:05:03.758Z,20.90
2023-05-20T23:08:27.384Z,20.90
2023-05-20T23:11:52.693Z,20.80
2023-05-20T23:15:16.614Z,20.70
2023-05-20T23:18:40.385Z,20.80
2023-05-20T23:22:04.047Z,20.70
2023-05-20T23:25:27.712Z,20.70
2023-05-20T23:28:52.692Z,20.60
2023-05-20T23:32:16.198Z,20.80
2023-05-20T23:35:39.756Z,20.50
2023-05-20T23:39:04.568Z,20.50
2023-05-20T23:42:28.978Z,20.50
2023-05-20T23:45:54.001Z,20.50
2023-05-20T23:49:18.479Z,20.50
2023-05-20T23:52:42.125Z,20.40
2023-05-20T23:56:07.775Z,20.40
2023-05-20T23:59:31.407Z,20.40
